sensor_id;sensor_type;location;lat;lon;timestamp;pressure;altitude;pressure_sealevel;temperature;humidity
32324;BME280;25666;44.350;9.222;2023-10-31T00:01:34;100284.09;;;19.87;100.00
32324;BME280;25666;44.350;9.222;2023-10-31T00:04:00;100273.66;;;19.84;100.00
32324;BME280;25666;44.350;9.222;2023-10-31T00:06:25;100268.75;;;19.88;100.00
32324;BME280;25666;44.350;9.222;2023-10-31T00:08:51;100269.66;;;19.81;100.00
32324;BME280;25666;44.350;9.222;2023-10-31T00:11:16;100272.13;;;19.79;100.00
32324;BME280;25666;44.350;9.222;2023-10-31T00:13:42;100269.75;;;19.74;100.00
32324;BME280;25666;44.350;9.222;2023-10-31T00:16:07;100273.06;;;19.69;100.00
32324;BME280;25666;44.350;9.222;2023-10-31T00:18:33;100264.06;;;19.77;100.00
32324;BME280;25666;44.350;9.222;2023-10-31T00:20:59;100263.16;;;19.84;100.00
32324;BME280;25666;44.350;9.222;2023-10-31T00:23:24;100263.19;;;19.81;100.00
32324;BME280;25666;44.350;9.222;2023-10-31T00:25:50;100258.72;;;19.83;100.00
32324;BME280;25666;44.350;9.222;2023-10-31T00:28:15;100257.16;;;19.82;100.00
32324;BME280;25666;44.350;9.222;2023-10-31T00:30:41;100256.34;;;19.82;100.00
32324;BME280;25666;44.350;9.222;2023-10-31T00:33:06;100249.00;;;19.88;100.00
32324;BME280;25666;44.350;9.222;2023-10-31T00:35:32;100236.47;;;19.89;100.00
32324;BME280;25666;44.350;9.222;2023-10-31T00:37:58;100235.56;;;19.95;100.00
32324;BME280;25666;44.350;9.222;2023-10-31T00:40:31;100217.47;;;19.89;100.00
32324;BME280;25666;44.350;9.222;2023-10-31T00:42:56;100202.19;;;19.87;100.00
32324;BME280;25666;44.350;9.222;2023-10-31T00:45:26;100185.50;;;19.96;100.00
32324;BME280;25666;44.350;9.222;2023-10-31T00:47:52;100180.72;;;19.93;100.00
32324;BME280;25666;44.350;9.222;2023-10-31T00:50:17;100169.84;;;19.91;100.00
32324;BME280;25666;44.350;9.222;2023-10-31T00:52:43;100173.47;;;19.92;100.00
32324;BME280;25666;44.350;9.222;2023-10-31T00:55:09;100188.31;;;19.96;100.00
32324;BME280;25666;44.350;9.222;2023-10-31T00:57:34;100179.94;;;19.92;100.00
32324;BME280;25666;44.350;9.222;2023-10-31T01:00:03;100191.94;;;19.96;100.00
32324;BME280;25666;44.350;9.222;2023-10-31T01:02:29;100194.47;;;19.91;100.00
32324;BME280;25666;44.350;9.222;2023-10-31T01:04:57;100204.09;;;19.93;100.00
32324;BME280;25666;44.350;9.222;2023-10-31T01:07:26;100205.34;;;19.92;100.00
32324;BME280;25666;44.350;9.222;2023-10-31T01:09:59;100205.34;;;19.92;100.00
32324;BME280;25666;44.350;9.222;2023-10-31T01:12:25;100203.31;;;19.93;100.00
32324;BME280;25666;44.350;9.222;2023-10-31T01:14:54;100199.31;;;19.90;100.00
32324;BME280;25666;44.350;9.222;2023-10-31T01:17:20;100186.34;;;19.93;100.00
32324;BME280;25666;44.350;9.222;2023-10-31T01:19:49;100186.03;;;19.87;100.00
32324;BME280;25666;44.350;9.222;2023-10-31T01:22:16;100176.09;;;19.79;100.00
32324;BME280;25666;44.350;9.222;2023-10-31T01:24:43;100164.00;;;19.78;100.00
32324;BME280;25666;44.350;9.222;2023-10-31T01:27:08;100148.88;;;19.65;100.00
32324;BME280;25666;44.350;9.222;2023-10-31T01:29:35;100133.03;;;19.71;100.00
32324;BME280;25666;44.350;9.222;2023-10-31T01:32:00;100130.53;;;19.77;100.00
32324;BME280;25666;44.350;9.222;2023-10-31T01:34:27;100125.91;;;19.63;100.00
32324;BME280;25666;44.350;9.222;2023-10-31T01:36:53;100130.38;;;19.61;100.00
32324;BME280;25666;44.350;9.222;2023-10-31T01:39:19;100113.13;;;19.55;100.00
32324;BME280;25666;44.350;9.222;2023-10-31T01:41:44;100128.41;;;19.58;100.00
32324;BME280;25666;44.350;9.222;2023-10-31T01:44:10;100136.19;;;19.50;100.00
32324;BME280;25666;44.350;9.222;2023-10-31T01:46:36;100127.72;;;19.50;100.00
32324;BME280;25666;44.350;9.222;2023-10-31T01:49:02;100133.72;;;19.52;100.00
32324;BME280;25666;44.350;9.222;2023-10-31T01:51:28;100138.31;;;19.43;100.00
32324;BME280;25666;44.350;9.222;2023-10-31T01:53:55;100132.28;;;19.41;100.00
32324;BME280;25666;44.350;9.222;2023-10-31T01:56:22;100133.91;;;19.38;100.00
32324;BME280;25666;44.350;9.222;2023-10-31T01:58:49;100130.69;;;19.40;100.00
32324;BME280;25666;44.350;9.222;2023-10-31T02:01:15;100119.41;;;19.40;100.00
32324;BME280;25666;44.350;9.222;2023-10-31T02:03:41;100122.22;;;19.36;100.00
32324;BME280;25666;44.350;9.222;2023-10-31T02:06:07;100114.47;;;19.47;100.00
32324;BME280;25666;44.350;9.222;2023-10-31T02:08:33;100126.25;;;19.39;100.00
32324;BME280;25666;44.350;9.222;2023-10-31T02:10:58;100117.66;;;19.49;100.00
32324;BME280;25666;44.350;9.222;2023-10-31T02:13:24;100121.03;;;19.37;100.00
32324;BME280;25666;44.350;9.222;2023-10-31T02:15:50;100127.41;;;19.45;100.00
32324;BME280;25666;44.350;9.222;2023-10-31T02:18:15;100125.00;;;19.43;100.00
32324;BME280;25666;44.350;9.222;2023-10-31T02:20:41;100123.78;;;19.44;100.00
32324;BME280;25666;44.350;9.222;2023-10-31T02:23:07;100126.56;;;19.48;100.00
32324;BME280;25666;44.350;9.222;2023-10-31T02:25:33;100129.94;;;19.36;100.00
32324;BME280;25666;44.350;9.222;2023-10-31T02:27:58;100127.47;;;19.38;100.00
32324;BME280;25666;44.350;9.222;2023-10-31T02:30:24;100138.81;;;19.34;100.00
32324;BME280;25666;44.350;9.222;2023-10-31T02:32:50;100148.44;;;19.37;100.00
32324;BME280;25666;44.350;9.222;2023-10-31T02:35:17;100154.88;;;19.37;100.00
32324;BME280;25666;44.350;9.222;2023-10-31T02:37:46;100171.00;;;19.37;100.00
32324;BME280;25666;44.350;9.222;2023-10-31T02:40:12;100166.97;;;19.38;100.00
32324;BME280;25666;44.350;9.222;2023-10-31T02:42:38;100167.03;;;19.34;100.00
32324;BME280;25666;44.350;9.222;2023-10-31T02:45:05;100159.78;;;19.33;100.00
32324;BME280;25666;44.350;9.222;2023-10-31T02:47:31;100159.03;;;19.29;100.00
32324;BME280;25666;44.350;9.222;2023-10-31T02:49:57;100157.72;;;19.37;100.00
32324;BME280;25666;44.350;9.222;2023-10-31T02:52:22;100151.84;;;19.24;100.00
32324;BME280;25666;44.350;9.222;2023-10-31T02:54:48;100152.88;;;19.38;100.00
32324;BME280;25666;44.350;9.222;2023-10-31T02:57:15;100154.94;;;19.34;100.00
32324;BME280;25666;44.350;9.222;2023-10-31T02:59:40;100161.63;;;19.16;100.00
32324;BME280;25666;44.350;9.222;2023-10-31T03:02:06;100151.50;;;19.19;100.00
32324;BME280;25666;44.350;9.222;2023-10-31T03:04:31;100144.31;;;19.14;100.00
32324;BME280;25666;44.350;9.222;2023-10-31T03:06:57;100150.44;;;19.09;100.00
32324;BME280;25666;44.350;9.222;2023-10-31T03:09:25;100167.97;;;19.24;100.00
32324;BME280;25666;44.350;9.222;2023-10-31T03:11:51;100178.19;;;19.11;100.00
32324;BME280;25666;44.350;9.222;2023-10-31T03:14:16;100175.06;;;19.05;100.00
32324;BME280;25666;44.350;9.222;2023-10-31T03:16:42;100173.69;;;18.83;100.00
32324;BME280;25666;44.350;9.222;2023-10-31T03:19:08;100192.59;;;18.86;100.00
32324;BME280;25666;44.350;9.222;2023-10-31T03:21:33;100176.47;;;18.87;100.00
32324;BME280;25666;44.350;9.222;2023-10-31T03:23:59;100176.50;;;18.83;100.00
32324;BME280;25666;44.350;9.222;2023-10-31T03:26:24;100183.50;;;18.71;100.00
32324;BME280;25666;44.350;9.222;2023-10-31T03:28:50;100201.28;;;18.65;100.00
32324;BME280;25666;44.350;9.222;2023-10-31T03:31:16;100205.59;;;18.77;100.00
32324;BME280;25666;44.350;9.222;2023-10-31T03:33:42;100205.31;;;18.64;100.00
32324;BME280;25666;44.350;9.222;2023-10-31T03:36:08;100203.41;;;18.57;100.00
32324;BME280;25666;44.350;9.222;2023-10-31T03:38:35;100192.56;;;18.52;100.00
32324;BME280;25666;44.350;9.222;2023-10-31T03:41:01;100205.41;;;18.57;100.00
32324;BME280;25666;44.350;9.222;2023-10-31T03:43:27;100193.78;;;18.48;100.00
32324;BME280;25666;44.350;9.222;2023-10-31T03:45:54;100190.59;;;18.42;100.00
32324;BME280;25666;44.350;9.222;2023-10-31T03:48:20;100187.38;;;18.44;100.00
32324;BME280;25666;44.350;9.222;2023-10-31T03:50:46;100174.16;;;18.37;100.00
32324;BME280;25666;44.350;9.222;2023-10-31T03:53:12;100187.75;;;18.46;100.00
32324;BME280;25666;44.350;9.222;2023-10-31T03:55:37;100187.44;;;18.37;100.00
32324;BME280;25666;44.350;9.222;2023-10-31T03:58:04;100194.75;;;18.31;100.00
32324;BME280;25666;44.350;9.222;2023-10-31T04:00:31;100186.19;;;18.41;100.00
32324;BME280;25666;44.350;9.222;2023-10-31T04:02:56;100191.03;;;18.41;100.00
32324;BME280;25666;44.350;9.222;2023-10-31T04:05:22;100183.41;;;18.38;100.00
32324;BME280;25666;44.350;9.222;2023-10-31T04:07:49;100178.63;;;18.31;100.00
32324;BME280;25666;44.350;9.222;2023-10-31T04:10:15;100184.75;;;18.26;100.00
32324;BME280;25666;44.350;9.222;2023-10-31T04:12:42;100197.03;;;18.43;100.00
32324;BME280;25666;44.350;9.222;2023-10-31T04:15:08;100188.31;;;18.30;100.00
32324;BME280;25666;44.350;9.222;2023-10-31T04:17:34;100178.41;;;18.11;100.00
32324;BME280;25666;44.350;9.222;2023-10-31T04:20:00;100171.22;;;18.07;100.00
32324;BME280;25666;44.350;9.222;2023-10-31T04:22:26;100175.25;;;18.06;100.00
32324;BME280;25666;44.350;9.222;2023-10-31T04:24:52;100179.72;;;18.00;100.00
32324;BME280;25666;44.350;9.222;2023-10-31T04:27:18;100168.44;;;18.00;100.00
32324;BME280;25666;44.350;9.222;2023-10-31T04:29:44;100156.59;;;18.23;100.00
32324;BME280;25666;44.350;9.222;2023-10-31T04:32:11;100172.25;;;18.24;100.00
32324;BME280;25666;44.350;9.222;2023-10-31T04:34:38;100169.47;;;18.20;100.00
32324;BME280;25666;44.350;9.222;2023-10-31T04:37:04;100153.91;;;18.05;100.00
32324;BME280;25666;44.350;9.222;2023-10-31T04:39:31;100131.81;;;18.03;100.00
32324;BME280;25666;44.350;9.222;2023-10-31T04:41:57;100128.09;;;18.13;100.00
32324;BME280;25666;44.350;9.222;2023-10-31T04:44:26;100128.78;;;17.80;100.00
32324;BME280;25666;44.350;9.222;2023-10-31T04:46:55;100134.69;;;17.96;100.00
32324;BME280;25666;44.350;9.222;2023-10-31T04:49:20;100116.69;;;17.83;100.00
32324;BME280;25666;44.350;9.222;2023-10-31T04:51:46;100129.09;;;17.89;100.00
32324;BME280;25666;44.350;9.222;2023-10-31T04:54:14;100129.06;;;17.93;100.00
32324;BME280;25666;44.350;9.222;2023-10-31T04:56:42;100134.28;;;17.98;100.00
32324;BME280;25666;44.350;9.222;2023-10-31T04:59:08;100135.06;;;17.98;100.00
32324;BME280;25666;44.350;9.222;2023-10-31T05:01:33;100132.69;;;17.93;100.00
32324;BME280;25666;44.350;9.222;2023-10-31T05:03:59;100137.97;;;17.91;100.00
32324;BME280;25666;44.350;9.222;2023-10-31T05:06:24;100142.66;;;18.01;100.00
32324;BME280;25666;44.350;9.222;2023-10-31T05:08:50;100136.13;;;18.15;100.00
32324;BME280;25666;44.350;9.222;2023-10-31T05:11:19;100138.19;;;18.07;100.00
32324;BME280;25666;44.350;9.222;2023-10-31T05:13:45;100144.22;;;18.09;100.00
32324;BME280;25666;44.350;9.222;2023-10-31T05:16:10;100145.47;;;18.05;100.00
32324;BME280;25666;44.350;9.222;2023-10-31T05:18:38;100142.75;;;17.94;100.00
32324;BME280;25666;44.350;9.222;2023-10-31T05:21:04;100133.75;;;18.13;100.00
32324;BME280;25666;44.350;9.222;2023-10-31T05:23:30;100135.06;;;17.98;100.00
32324;BME280;25666;44.350;9.222;2023-10-31T05:25:56;100129.41;;;18.02;100.00
32324;BME280;25666;44.350;9.222;2023-10-31T05:28:21;100136.09;;;18.18;100.00
32324;BME280;25666;44.350;9.222;2023-10-31T05:30:47;100138.91;;;18.18;100.00
32324;BME280;25666;44.350;9.222;2023-10-31T05:33:17;100142.94;;;18.17;100.00
32324;BME280;25666;44.350;9.222;2023-10-31T05:35:43;100159.38;;;18.26;100.00
32324;BME280;25666;44.350;9.222;2023-10-31T05:38:08;100169.91;;;18.18;100.00
32324;BME280;25666;44.350;9.222;2023-10-31T05:40:34;100155.50;;;18.09;100.00
32324;BME280;25666;44.350;9.222;2023-10-31T05:43:02;100166.75;;;18.09;100.00
32324;BME280;25666;44.350;9.222;2023-10-31T05:45:29;100189.13;;;18.27;100.00
32324;BME280;25666;44.350;9.222;2023-10-31T05:47:55;100221.31;;;18.30;100.00
32324;BME280;25666;44.350;9.222;2023-10-31T05:50:20;100253.72;;;18.04;100.00
32324;BME280;25666;44.350;9.222;2023-10-31T05:52:46;100274.44;;;17.65;100.00
32324;BME280;25666;44.350;9.222;2023-10-31T05:55:13;100267.03;;;16.35;100.00
32324;BME280;25666;44.350;9.222;2023-10-31T05:57:38;100273.44;;;16.00;100.00
32324;BME280;25666;44.350;9.222;2023-10-31T06:00:06;100285.91;;;16.28;100.00
32324;BME280;25666;44.350;9.222;2023-10-31T06:02:37;100289.13;;;16.16;100.00
32324;BME280;25666;44.350;9.222;2023-10-31T06:05:03;100291.53;;;16.35;100.00
32324;BME280;25666;44.350;9.222;2023-10-31T06:07:28;100282.28;;;16.13;100.00
32324;BME280;25666;44.350;9.222;2023-10-31T06:09:54;100284.69;;;16.11;100.00
32324;BME280;25666;44.350;9.222;2023-10-31T06:12:20;100285.91;;;16.06;100.00
32324;BME280;25666;44.350;9.222;2023-10-31T06:14:45;100285.88;;;16.10;100.00
32324;BME280;25666;44.350;9.222;2023-10-31T06:17:11;100294.28;;;16.10;100.00
32324;BME280;25666;44.350;9.222;2023-10-31T06:19:37;100300.72;;;16.00;100.00
32324;BME280;25666;44.350;9.222;2023-10-31T06:22:03;100306.34;;;16.00;100.00
32324;BME280;25666;44.350;9.222;2023-10-31T06:24:29;100313.53;;;15.90;100.00
32324;BME280;25666;44.350;9.222;2023-10-31T06:26:54;100331.94;;;15.84;100.00
32324;BME280;25666;44.350;9.222;2023-10-31T06:29:20;100331.53;;;15.82;100.00
32324;BME280;25666;44.350;9.222;2023-10-31T06:31:45;100356.25;;;15.52;100.00
32324;BME280;25666;44.350;9.222;2023-10-31T06:34:11;100348.66;;;15.56;100.00
32324;BME280;25666;44.350;9.222;2023-10-31T06:36:37;100350.28;;;15.64;100.00
32324;BME280;25666;44.350;9.222;2023-10-31T06:39:02;100358.75;;;15.71;100.00
32324;BME280;25666;44.350;9.222;2023-10-31T06:41:28;100371.97;;;15.71;100.00
32324;BME280;25666;44.350;9.222;2023-10-31T06:43:53;100379.69;;;15.88;100.00
32324;BME280;25666;44.350;9.222;2023-10-31T06:46:19;100397.28;;;15.81;100.00
32324;BME280;25666;44.350;9.222;2023-10-31T06:48:44;100407.66;;;15.74;100.00
32324;BME280;25666;44.350;9.222;2023-10-31T06:51:10;100405.94;;;14.97;100.00
32324;BME280;25666;44.350;9.222;2023-10-31T06:53:36;100388.09;;;15.23;100.00
32324;BME280;25666;44.350;9.222;2023-10-31T06:56:02;100390.38;;;15.65;100.00
32324;BME280;25666;44.350;9.222;2023-10-31T06:58:28;100399.00;;;16.14;100.00
32324;BME280;25666;44.350;9.222;2023-10-31T07:00:53;100414.22;;;16.06;100.00
32324;BME280;25666;44.350;9.222;2023-10-31T07:03:20;100417.06;;;16.20;100.00
32324;BME280;25666;44.350;9.222;2023-10-31T07:05:46;100409.41;;;16.06;100.00
32324;BME280;25666;44.350;9.222;2023-10-31T07:08:11;100405.00;;;16.09;100.00
32324;BME280;25666;44.350;9.222;2023-10-31T07:10:37;100410.66;;;16.16;100.00
32324;BME280;25666;44.350;9.222;2023-10-31T07:13:02;100420.34;;;16.36;100.00
32324;BME280;25666;44.350;9.222;2023-10-31T07:15:28;100421.56;;;16.46;100.00
32324;BME280;25666;44.350;9.222;2023-10-31T07:17:53;100435.22;;;16.51;100.00
32324;BME280;25666;44.350;9.222;2023-10-31T07:20:19;100445.72;;;16.61;100.00
32324;BME280;25666;44.350;9.222;2023-10-31T07:22:44;100460.56;;;16.65;100.00
32324;BME280;25666;44.350;9.222;2023-10-31T07:25:10;100466.59;;;16.67;100.00
32324;BME280;25666;44.350;9.222;2023-10-31T07:27:36;100465.81;;;16.74;100.00
32324;BME280;25666;44.350;9.222;2023-10-31T07:30:05;100472.91;;;16.39;100.00
32324;BME280;25666;44.350;9.222;2023-10-31T07:32:31;100467.72;;;16.52;100.00
32324;BME280;25666;44.350;9.222;2023-10-31T07:34:57;100465.72;;;16.49;100.00
32324;BME280;25666;44.350;9.222;2023-10-31T07:37:23;100476.66;;;16.72;100.00
32324;BME280;25666;44.350;9.222;2023-10-31T07:39:48;100493.94;;;16.77;100.00
32324;BME280;25666;44.350;9.222;2023-10-31T07:42:16;100487.47;;;16.73;100.00
32324;BME280;25666;44.350;9.222;2023-10-31T07:44:41;100496.31;;;16.68;100.00
32324;BME280;25666;44.350;9.222;2023-10-31T07:47:07;100505.53;;;16.62;100.00
32324;BME280;25666;44.350;9.222;2023-10-31T07:49:32;100501.16;;;16.75;100.00
32324;BME280;25666;44.350;9.222;2023-10-31T07:51:58;100510.00;;;16.80;100.00
32324;BME280;25666;44.350;9.222;2023-10-31T07:54:23;100521.22;;;16.80;100.00
32324;BME280;25666;44.350;9.222;2023-10-31T07:56:49;100512.81;;;16.84;100.00
32324;BME280;25666;44.350;9.222;2023-10-31T07:59:14;100520.44;;;16.87;100.00
32324;BME280;25666;44.350;9.222;2023-10-31T08:01:40;100529.69;;;16.87;100.00
32324;BME280;25666;44.350;9.222;2023-10-31T08:04:06;100540.94;;;16.98;100.00
32324;BME280;25666;44.350;9.222;2023-10-31T08:06:32;100554.22;;;16.94;100.00
32324;BME280;25666;44.350;9.222;2023-10-31T08:08:57;100545.34;;;16.92;100.00
32324;BME280;25666;44.350;9.222;2023-10-31T08:11:23;100556.25;;;17.00;100.00
32324;BME280;25666;44.350;9.222;2023-10-31T08:13:48;100567.06;;;17.02;100.00
32324;BME280;25666;44.350;9.222;2023-10-31T08:16:18;100582.75;;;17.03;100.00
32324;BME280;25666;44.350;9.222;2023-10-31T08:18:46;100591.59;;;17.05;100.00
32324;BME280;25666;44.350;9.222;2023-10-31T08:21:12;100596.03;;;17.09;100.00
32324;BME280;25666;44.350;9.222;2023-10-31T08:23:38;100604.06;;;17.11;100.00
32324;BME280;25666;44.350;9.222;2023-10-31T08:26:04;100620.13;;;17.14;100.00
32324;BME280;25666;44.350;9.222;2023-10-31T08:28:30;100617.75;;;17.20;100.00
32324;BME280;25666;44.350;9.222;2023-10-31T08:30:56;100610.09;;;17.24;100.00
32324;BME280;25666;44.350;9.222;2023-10-31T08:33:22;100609.28;;;17.23;100.00
32324;BME280;25666;44.350;9.222;2023-10-31T08:35:48;100621.34;;;17.24;100.00
32324;BME280;25666;44.350;9.222;2023-10-31T08:38:13;100621.78;;;17.22;100.00
32324;BME280;25666;44.350;9.222;2023-10-31T08:40:39;100618.56;;;17.27;100.00
32324;BME280;25666;44.350;9.222;2023-10-31T08:43:06;100620.59;;;17.34;100.00
32324;BME280;25666;44.350;9.222;2023-10-31T08:45:32;100622.59;;;17.33;100.00
32324;BME280;25666;44.350;9.222;2023-10-31T08:47:58;100625.44;;;17.44;100.00
32324;BME280;25666;44.350;9.222;2023-10-31T08:50:24;100623.03;;;17.53;100.00
32324;BME280;25666;44.350;9.222;2023-10-31T08:52:50;100624.63;;;17.50;100.00
32324;BME280;25666;44.350;9.222;2023-10-31T08:55:15;100637.53;;;17.55;100.00
32324;BME280;25666;44.350;9.222;2023-10-31T08:57:41;100630.69;;;17.56;100.00
32324;BME280;25666;44.350;9.222;2023-10-31T09:00:07;100636.69;;;17.54;100.00
32324;BME280;25666;44.350;9.222;2023-10-31T09:02:32;100636.34;;;17.63;100.00
32324;BME280;25666;44.350;9.222;2023-10-31T09:04:59;100637.16;;;17.74;100.00
32324;BME280;25666;44.350;9.222;2023-10-31T09:07:24;100639.16;;;17.77;100.00
32324;BME280;25666;44.350;9.222;2023-10-31T09:09:50;100647.19;;;17.86;100.00
32324;BME280;25666;44.350;9.222;2023-10-31T09:12:15;100658.88;;;17.88;100.00
32324;BME280;25666;44.350;9.222;2023-10-31T09:14:41;100666.53;;;17.87;100.00
32324;BME280;25666;44.350;9.222;2023-10-31T09:17:07;100676.97;;;17.80;100.00
32324;BME280;25666;44.350;9.222;2023-10-31T09:19:33;100682.22;;;17.85;100.00
32324;BME280;25666;44.350;9.222;2023-10-31T09:21:58;100685.00;;;17.92;100.00
32324;BME280;25666;44.350;9.222;2023-10-31T09:24:24;100693.47;;;17.88;100.00
32324;BME280;25666;44.350;9.222;2023-10-31T09:26:49;100696.28;;;17.85;100.00
32324;BME280;25666;44.350;9.222;2023-10-31T09:29:15;100699.91;;;17.82;100.00
32324;BME280;25666;44.350;9.222;2023-10-31T09:31:40;100707.91;;;17.76;100.00
32324;BME280;25666;44.350;9.222;2023-10-31T09:34:06;100709.13;;;17.72;100.00
32324;BME280;25666;44.350;9.222;2023-10-31T09:36:33;100715.56;;;17.69;100.00
32324;BME280;25666;44.350;9.222;2023-10-31T09:39:00;100712.34;;;17.77;100.00
32324;BME280;25666;44.350;9.222;2023-10-31T09:41:25;100711.56;;;17.80;100.00
32324;BME280;25666;44.350;9.222;2023-10-31T09:43:51;100716.78;;;17.89;100.00
32324;BME280;25666;44.350;9.222;2023-10-31T09:46:18;100720.41;;;17.93;100.00
32324;BME280;25666;44.350;9.222;2023-10-31T09:48:44;100711.19;;;18.03;100.00
32324;BME280;25666;44.350;9.222;2023-10-31T09:51:09;100708.38;;;18.13;100.00
32324;BME280;25666;44.350;9.222;2023-10-31T09:53:41;100710.78;;;18.18;100.00
32324;BME280;25666;44.350;9.222;2023-10-31T09:56:09;100715.19;;;18.27;100.00
32324;BME280;25666;44.350;9.222;2023-10-31T09:58:35;100712.78;;;18.22;100.00
32324;BME280;25666;44.350;9.222;2023-10-31T10:01:01;100708.75;;;18.08;100.00
32324;BME280;25666;44.350;9.222;2023-10-31T10:03:27;100715.22;;;18.19;100.00
32324;BME280;25666;44.350;9.222;2023-10-31T10:05:53;100710.78;;;18.18;100.00
32324;BME280;25666;44.350;9.222;2023-10-31T10:08:19;100725.28;;;18.10;100.00
32324;BME280;25666;44.350;9.222;2023-10-31T10:10:45;100721.22;;;18.11;100.00
32324;BME280;25666;44.350;9.222;2023-10-31T10:13:10;100725.28;;;18.06;100.00
32324;BME280;25666;44.350;9.222;2023-10-31T10:15:48;100726.88;;;18.00;100.00
32324;BME280;25666;44.350;9.222;2023-10-31T10:18:27;100728.88;;;18.00;100.00
32324;BME280;25666;44.350;9.222;2023-10-31T10:23:23;100718.41;;;18.07;100.00
32324;BME280;25666;44.350;9.222;2023-10-31T10:25:52;100712.81;;;18.04;100.00
32324;BME280;25666;44.350;9.222;2023-10-31T10:28:18;100709.19;;;18.03;100.00
32324;BME280;25666;44.350;9.222;2023-10-31T10:30:48;100715.59;;;18.07;100.00
32324;BME280;25666;44.350;9.222;2023-10-31T10:33:15;100720.44;;;18.10;100.00
32324;BME280;25666;44.350;9.222;2023-10-31T10:35:41;100726.88;;;18.14;100.00
32324;BME280;25666;44.350;9.222;2023-10-31T10:38:11;100719.63;;;18.24;100.00
32324;BME280;25666;44.350;9.222;2023-10-31T10:40:47;100734.13;;;18.26;100.00
32324;BME280;25666;44.350;9.222;2023-10-31T10:43:26;100742.19;;;18.35;100.00
32324;BME280;25666;44.350;9.222;2023-10-31T10:45:57;100735.34;;;18.32;100.00
32324;BME280;25666;44.350;9.222;2023-10-31T10:48:27;100737.75;;;18.37;100.00
32324;BME280;25666;44.350;9.222;2023-10-31T10:53:35;100741.34;;;18.48;100.00
32324;BME280;25666;44.350;9.222;2023-10-31T10:56:11;100745.00;;;18.52;100.00
32324;BME280;25666;44.350;9.222;2023-10-31T10:58:52;100747.44;;;18.54;100.00
32324;BME280;25666;44.350;9.222;2023-10-31T11:01:20;100751.03;;;18.54;100.00
32324;BME280;25666;44.350;9.222;2023-10-31T11:03:46;100739.75;;;18.54;100.00
32324;BME280;25666;44.350;9.222;2023-10-31T11:06:12;100736.56;;;18.56;100.00
32324;BME280;25666;44.350;9.222;2023-10-31T11:08:40;100738.16;;;18.60;100.00
32324;BME280;25666;44.350;9.222;2023-10-31T11:11:06;100743.38;;;18.65;100.00
32324;BME280;25666;44.350;9.222;2023-10-31T11:13:32;100742.56;;;18.68;100.00
32324;BME280;25666;44.350;9.222;2023-10-31T11:16:04;100749.84;;;18.66;100.00
32324;BME280;25666;44.350;9.222;2023-10-31T11:18:34;100744.59;;;18.61;100.00
32324;BME280;25666;44.350;9.222;2023-10-31T11:21:00;100741.75;;;18.64;100.00
32324;BME280;25666;44.350;9.222;2023-10-31T11:23:27;100738.56;;;18.66;100.00
32324;BME280;25666;44.350;9.222;2023-10-31T11:25:53;100738.13;;;18.71;100.00
32324;BME280;25666;44.350;9.222;2023-10-31T11:28:20;100727.66;;;18.68;100.00
32324;BME280;25666;44.350;9.222;2023-10-31T11:30:48;100725.25;;;18.70;100.00
32324;BME280;25666;44.350;9.222;2023-10-31T11:33:16;100729.66;;;18.75;100.00
32324;BME280;25666;44.350;9.222;2023-10-31T11:35:44;100732.06;;;18.83;100.00
32324;BME280;25666;44.350;9.222;2023-10-31T11:38:14;100726.03;;;18.81;100.00
32324;BME280;25666;44.350;9.222;2023-10-31T11:43:14;100723.56;;;18.97;100.00
32324;BME280;25666;44.350;9.222;2023-10-31T11:45:42;100729.19;;;19.01;100.00
32324;BME280;25666;44.350;9.222;2023-10-31T11:48:10;100735.22;;;19.13;100.00
32324;BME280;25666;44.350;9.222;2023-10-31T11:50:37;100724.31;;;19.08;100.00
32324;BME280;25666;44.350;9.222;2023-10-31T11:53:10;100725.94;;;19.13;100.00
32324;BME280;25666;44.350;9.222;2023-10-31T11:55:43;100725.91;;;19.20;100.00
32324;BME280;25666;44.350;9.222;2023-10-31T11:58:27;100726.28;;;19.22;100.00
32324;BME280;25666;44.350;9.222;2023-10-31T12:01:01;100737.63;;;19.11;100.00
32324;BME280;25666;44.350;9.222;2023-10-31T12:03:27;100733.19;;;19.10;100.00
32324;BME280;25666;44.350;9.222;2023-10-31T12:05:54;100737.22;;;19.16;100.00
32324;BME280;25666;44.350;9.222;2023-10-31T12:08:28;100735.19;;;19.17;100.00
32324;BME280;25666;44.350;9.222;2023-10-31T12:11:12;100742.41;;;19.21;100.00
32324;BME280;25666;44.350;9.222;2023-10-31T12:13:58;100743.63;;;19.20;100.00
32324;BME280;25666;44.350;9.222;2023-10-31T12:16:31;100750.09;;;19.17;100.00
32324;BME280;25666;44.350;9.222;2023-10-31T12:19:04;100744.03;;;19.22;100.00
32324;BME280;25666;44.350;9.222;2023-10-31T12:24:10;100750.88;;;19.21;100.00
32324;BME280;25666;44.350;9.222;2023-10-31T12:26:36;100751.69;;;19.22;100.00
32324;BME280;25666;44.350;9.222;2023-10-31T12:29:08;100743.63;;;19.20;100.00
32324;BME280;25666;44.350;9.222;2023-10-31T12:31:34;100750.91;;;19.18;100.00
32324;BME280;25666;44.350;9.222;2023-10-31T12:34:06;100754.91;;;19.27;100.00
32324;BME280;25666;44.350;9.222;2023-10-31T12:36:32;100763.75;;;19.30;100.00
32324;BME280;25666;44.350;9.222;2023-10-31T12:38:58;100757.72;;;19.27;100.00
32324;BME280;25666;44.350;9.222;2023-10-31T12:41:24;100759.72;;;19.31;100.00
32324;BME280;25666;44.350;9.222;2023-10-31T12:43:50;100758.91;;;19.34;100.00
32324;BME280;25666;44.350;9.222;2023-10-31T12:46:29;100761.34;;;19.32;100.00
32324;BME280;25666;44.350;9.222;2023-10-31T12:48:56;100764.13;;;19.39;100.00